sensor_id;sensor_type;location;lat;lon;timestamp;pressure;altitude;pressure_sealevel;temperature;humidity
58955;BME280;45815;52.334;5.024;2023-01-30T00:00:28;101711.97;;;7.47;100.00
58955;BME280;45815;52.334;5.024;2023-01-30T00:02:54;101693.00;;;7.51;100.00
58955;BME280;45815;52.334;5.024;2023-01-30T00:05:20;101684.19;;;7.49;100.00
58955;BME280;45815;52.334;5.024;2023-01-30T00:07:45;101687.00;;;7.53;100.00
58955;BME280;45815;52.334;5.024;2023-01-30T00:10:11;101675.56;;;7.50;100.00
58955;BME280;45815;52.334;5.024;2023-01-30T00:12:36;101645.31;;;7.35;100.00
58955;BME280;45815;52.334;5.024;2023-01-30T00:15:02;101686.13;;;7.53;100.00
58955;BME280;45815;52.334;5.024;2023-01-30T00:17:27;101671.97;;;7.48;100.00
58955;BME280;45815;52.334;5.024;2023-01-30T00:19:53;101680.78;;;7.50;100.00
58955;BME280;45815;52.334;5.024;2023-01-30T00:22:18;101675.56;;;7.50;100.00
58955;BME280;45815;52.334;5.024;2023-01-30T00:24:44;101670.31;;;7.50;100.00
58955;BME280;45815;52.334;5.024;2023-01-30T00:27:09;101666.94;;;7.52;100.00
58955;BME280;45815;52.334;5.024;2023-01-30T00:29:34;101664.47;;;7.55;100.00
58955;BME280;45815;52.334;5.024;2023-01-30T00:32:00;101660.69;;;7.49;100.00
58955;BME280;45815;52.334;5.024;2023-01-30T00:34:26;101655.63;;;7.52;100.00
58955;BME280;45815;52.334;5.024;2023-01-30T00:36:51;101644.97;;;7.47;100.00
58955;BME280;45815;52.334;5.024;2023-01-30T00:39:17;101645.84;;;7.48;100.00
58955;BME280;45815;52.334;5.024;2023-01-30T00:41:42;101639.66;;;7.46;100.00
58955;BME280;45815;52.334;5.024;2023-01-30T00:44:27;101643.13;;;7.45;100.00
58955;BME280;45815;52.334;5.024;2023-01-30T00:47:11;101636.38;;;7.50;100.00
58955;BME280;45815;52.334;5.024;2023-01-30T00:49:37;101625.75;;;7.47;100.00
58955;BME280;45815;52.334;5.024;2023-01-30T00:52:03;101620.00;;;7.54;100.00
58955;BME280;45815;52.334;5.024;2023-01-30T00:54:29;101610.16;;;7.48;100.00
58955;BME280;45815;52.334;5.024;2023-01-30T00:56:57;101598.97;;;7.51;100.00
58955;BME280;45815;52.334;5.024;2023-01-30T00:59:25;101592.66;;;7.46;100.00
58955;BME280;45815;52.334;5.024;2023-01-30T01:01:50;101594.56;;;7.50;100.00
58955;BME280;45815;52.334;5.024;2023-01-30T01:04:16;101571.63;;;7.43;100.00
58955;BME280;45815;52.334;5.024;2023-01-30T01:06:41;101589.75;;;7.39;100.00
58955;BME280;45815;52.334;5.024;2023-01-30T01:09:06;101596.03;;;7.43;100.00
58955;BME280;45815;52.334;5.024;2023-01-30T01:11:33;101582.84;;;7.40;100.00
58955;BME280;45815;52.334;5.024;2023-01-30T01:14:00;101584.81;;;7.46;100.00
58955;BME280;45815;52.334;5.024;2023-01-30T01:16:27;101586.47;;;7.44;100.00
58955;BME280;45815;52.334;5.024;2023-01-30T01:18:56;101580.81;;;7.34;100.00
58955;BME280;45815;52.334;5.024;2023-01-30T01:21:22;101579.19;;;7.36;100.00
58955;BME280;45815;52.334;5.024;2023-01-30T01:23:49;101589.63;;;7.36;100.00
58955;BME280;45815;52.334;5.024;2023-01-30T01:26:16;101589.63;;;7.36;100.00
58955;BME280;45815;52.334;5.024;2023-01-30T01:28:42;101592.13;;;7.33;100.00
58955;BME280;45815;52.334;5.024;2023-01-30T01:31:11;101578.00;;;7.30;100.00
58955;BME280;45815;52.334;5.024;2023-01-30T01:33:37;101592.88;;;7.31;100.00
58955;BME280;45815;52.334;5.024;2023-01-30T01:36:03;101587.69;;;7.32;100.00
58955;BME280;45815;52.334;5.024;2023-01-30T01:38:28;101580.91;;;7.36;100.00
58955;BME280;45815;52.334;5.024;2023-01-30T01:40:54;101584.00;;;7.27;100.00
58955;BME280;45815;52.334;5.024;2023-01-30T01:44:06;101586.63;;;7.08;100.00
58955;BME280;45815;52.334;5.024;2023-01-30T01:46:42;101588.75;;;7.16;100.00
58955;BME280;45815;52.334;5.024;2023-01-30T01:49:30;101583.59;;;7.18;100.00
58955;BME280;45815;52.334;5.024;2023-01-30T01:52:13;101582.41;;;7.11;100.00
58955;BME280;45815;52.334;5.024;2023-01-30T01:54:44;101587.84;;;7.16;100.00
58955;BME280;45815;52.334;5.024;2023-01-30T01:57:20;101584.97;;;7.10;100.00
58955;BME280;45815;52.334;5.024;2023-01-30T02:00:14;101587.50;;;7.08;100.00
58955;BME280;45815;52.334;5.024;2023-01-30T02:02:44;101585.09;;;7.13;100.00
58955;BME280;45815;52.334;5.024;2023-01-30T02:05:13;101579.88;;;7.13;100.00
58955;BME280;45815;52.334;5.024;2023-01-30T02:07:45;101596.22;;;7.09;100.00
58955;BME280;45815;52.334;5.024;2023-01-30T02:10:18;101586.50;;;7.05;100.00
58955;BME280;45815;52.334;5.024;2023-01-30T02:12:45;101571.84;;;7.08;100.00
58955;BME280;45815;52.334;5.024;2023-01-30T02:15:13;101574.31;;;7.05;100.00
58955;BME280;45815;52.334;5.024;2023-01-30T02:17:39;101582.91;;;7.03;100.00
58955;BME280;45815;52.334;5.024;2023-01-30T02:23:20;101593.91;;;6.95;100.00
58955;BME280;45815;52.334;5.024;2023-01-30T02:31:30;101564.78;;;7.06;100.00
58955;BME280;45815;52.334;5.024;2023-01-30T02:34:20;101570.53;;;6.98;100.00
58955;BME280;45815;52.334;5.024;2023-01-30T02:42:43;101579.59;;;7.07;100.00
58955;BME280;45815;52.334;5.024;2023-01-30T02:48:26;101587.22;;;7.02;100.00
58955;BME280;45815;52.334;5.024;2023-01-30T02:51:04;101576.19;;;7.08;100.00
58955;BME280;45815;52.334;5.024;2023-01-30T02:53:32;101577.41;;;7.16;100.00
58955;BME280;45815;52.334;5.024;2023-01-30T02:55:58;101581.94;;;7.20;100.00
58955;BME280;45815;52.334;5.024;2023-01-30T02:58:27;101568.97;;;7.22;100.00
58955;BME280;45815;52.334;5.024;2023-01-30T03:01:10;101563.53;;;7.17;100.00
58955;BME280;45815;52.334;5.024;2023-01-30T03:03:51;101558.44;;;7.20;100.00
58955;BME280;45815;52.334;5.024;2023-01-30T03:11:46;101549.84;;;7.23;100.00
58955;BME280;45815;52.334;5.024;2023-01-30T03:14:21;101539.69;;;7.29;100.00
58955;BME280;45815;52.334;5.024;2023-01-30T03:16:52;101528.34;;;7.28;100.00
58955;BME280;45815;52.334;5.024;2023-01-30T03:19:20;101531.91;;;7.30;100.00
58955;BME280;45815;52.334;5.024;2023-01-30T03:21:46;101536.38;;;7.33;100.00
58955;BME280;45815;52.334;5.024;2023-01-30T03:24:12;101539.94;;;7.35;100.00
58955;BME280;45815;52.334;5.024;2023-01-30T03:26:48;101530.41;;;7.35;100.00
58955;BME280;45815;52.334;5.024;2023-01-30T03:29:14;101530.41;;;7.35;100.00
58955;BME280;45815;52.334;5.024;2023-01-30T03:31:40;101539.19;;;7.37;100.00
58955;BME280;45815;52.334;5.024;2023-01-30T03:34:05;101536.72;;;7.40;100.00
58955;BME280;45815;52.334;5.024;2023-01-30T03:36:31;101522.13;;;7.46;100.00
58955;BME280;45815;52.334;5.024;2023-01-30T03:38:56;101520.34;;;7.45;100.00
58955;BME280;45815;52.334;5.024;2023-01-30T03:41:22;101509.94;;;7.46;100.00
58955;BME280;45815;52.334;5.024;2023-01-30T03:43:47;101527.47;;;7.49;100.00
58955;BME280;45815;52.334;5.024;2023-01-30T03:46:14;101512.75;;;7.51;100.00
58955;BME280;45815;52.334;5.024;2023-01-30T03:48:39;101516.44;;;7.56;100.00
58955;BME280;45815;52.334;5.024;2023-01-30T03:51:05;101516.41;;;7.54;100.00
58955;BME280;45815;52.334;5.024;2023-01-30T03:53:31;101498.03;;;7.53;100.00
58955;BME280;45815;52.334;5.024;2023-01-30T03:55:57;101501.50;;;7.52;100.00
58955;BME280;45815;52.334;5.024;2023-01-30T03:58:28;101515.44;;;7.52;100.00
58955;BME280;45815;52.334;5.024;2023-01-30T04:00:55;101511.22;;;7.56;100.00
58955;BME280;45815;52.334;5.024;2023-01-30T04:03:22;101520.97;;;7.60;100.00
58955;BME280;45815;52.334;5.024;2023-01-30T04:05:50;101532.38;;;7.62;100.00
58955;BME280;45815;52.334;5.024;2023-01-30T04:08:16;101512.19;;;7.58;100.00
58955;BME280;45815;52.334;5.024;2023-01-30T04:10:41;101518.44;;;7.61;100.00
58955;BME280;45815;52.334;5.024;2023-01-30T04:13:06;101512.53;;;7.66;100.00
58955;BME280;45815;52.334;5.024;2023-01-30T04:15:32;101524.28;;;7.56;100.00
58955;BME280;45815;52.334;5.024;2023-01-30T04:18:21;101555.91;;;7.62;100.00
58955;BME280;45815;52.334;5.024;2023-01-30T04:20:55;101507.34;;;7.67;100.00
58955;BME280;45815;52.334;5.024;2023-01-30T04:23:28;101507.50;;;7.70;100.00
58955;BME280;45815;52.334;5.024;2023-01-30T04:25:53;101523.16;;;7.70;100.00
58955;BME280;45815;52.334;5.024;2023-01-30T04:28:21;101527.81;;;7.77;100.00
58955;BME280;45815;52.334;5.024;2023-01-30T04:30:47;101524.94;;;7.71;100.00
58955;BME280;45815;52.334;5.024;2023-01-30T04:33:31;101519.53;;;7.67;100.00
58955;BME280;45815;52.334;5.024;2023-01-30T04:36:02;101531.63;;;7.65;100.00
58955;BME280;45815;52.334;5.024;2023-01-30T04:38:29;101514.50;;;7.71;100.00
58955;BME280;45815;52.334;5.024;2023-01-30T04:40:56;101515.25;;;7.69;100.00
58955;BME280;45815;52.334;5.024;2023-01-30T04:43:26;101500.34;;;7.66;100.00
58955;BME280;45815;52.334;5.024;2023-01-30T04:46:15;101512.66;;;7.69;100.00
58955;BME280;45815;52.334;5.024;2023-01-30T04:48:41;101495.25;;;7.69;100.00
58955;BME280;45815;52.334;5.024;2023-01-30T04:51:08;101504.50;;;7.61;100.00
58955;BME280;45815;52.334;5.024;2023-01-30T04:53:35;101522.06;;;7.65;100.00
58955;BME280;45815;52.334;5.024;2023-01-30T04:56:01;101523.78;;;7.65;100.00
58955;BME280;45815;52.334;5.024;2023-01-30T04:58:26;101535.00;;;7.62;100.00
58955;BME280;45815;52.334;5.024;2023-01-30T05:00:52;101513.72;;;7.53;100.00
58955;BME280;45815;52.334;5.024;2023-01-30T05:03:18;101521.81;;;7.59;100.00
58955;BME280;45815;52.334;5.024;2023-01-30T05:05:47;101522.63;;;7.58;100.00
58955;BME280;45815;52.334;5.024;2023-01-30T05:08:16;101518.81;;;7.50;100.00
58955;BME280;45815;52.334;5.024;2023-01-30T05:10:41;101517.16;;;7.52;100.00
58955;BME280;45815;52.334;5.024;2023-01-30T05:13:07;101516.78;;;7.43;100.00
58955;BME280;45815;52.334;5.024;2023-01-30T05:15:32;101512.44;;;7.43;100.00
58955;BME280;45815;52.334;5.024;2023-01-30T05:17:58;101510.47;;;7.37;100.00
58955;BME280;45815;52.334;5.024;2023-01-30T05:20:24;101511.41;;;7.39;100.00
58955;BME280;45815;52.334;5.024;2023-01-30T05:22:49;101524.22;;;7.33;100.00
58955;BME280;45815;52.334;5.024;2023-01-30T05:25:15;101519.69;;;7.29;100.00
58955;BME280;45815;52.334;5.024;2023-01-30T05:27:40;101523.34;;;7.33;100.00
58955;BME280;45815;52.334;5.024;2023-01-30T05:30:06;101524.34;;;7.36;100.00
58955;BME280;45815;52.334;5.024;2023-01-30T05:32:32;101524.91;;;7.29;100.00
58955;BME280;45815;52.334;5.024;2023-01-30T05:34:57;101537.47;;;7.38;100.00
58955;BME280;45815;52.334;5.024;2023-01-30T05:37:23;101536.44;;;7.34;100.00
58955;BME280;45815;52.334;5.024;2023-01-30T05:39:48;101547.06;;;7.39;100.00
58955;BME280;45815;52.334;5.024;2023-01-30T05:42:14;101543.41;;;7.14;100.00
58955;BME280;45815;52.334;5.024;2023-01-30T05:44:40;101535.63;;;7.16;100.00
58955;BME280;45815;52.334;5.024;2023-01-30T05:47:05;101530.47;;;7.17;100.00
58955;BME280;45815;52.334;5.024;2023-01-30T05:49:30;101530.63;;;7.01;100.00
58955;BME280;45815;52.334;5.024;2023-01-30T05:51:56;101541.91;;;7.00;100.00
58955;BME280;45815;52.334;5.024;2023-01-30T05:54:21;101536.28;;;6.91;100.00
58955;BME280;45815;52.334;5.024;2023-01-30T05:56:50;101530.22;;;6.92;100.00
58955;BME280;45815;52.334;5.024;2023-01-30T05:59:16;101552.69;;;6.88;100.00
58955;BME280;45815;52.334;5.024;2023-01-30T06:01:43;101531.94;;;6.91;100.00
58955;BME280;45815;52.334;5.024;2023-01-30T06:04:08;101538.03;;;6.92;100.00
58955;BME280;45815;52.334;5.024;2023-01-30T06:06:33;101545.97;;;6.93;100.00
58955;BME280;45815;52.334;5.024;2023-01-30T06:08:59;101542.09;;;6.85;100.00
58955;BME280;45815;52.334;5.024;2023-01-30T06:11:24;101543.72;;;6.83;100.00
58955;BME280;45815;52.334;5.024;2023-01-30T06:13:50;101561.44;;;6.90;100.00
58955;BME280;45815;52.334;5.024;2023-01-30T06:16:17;101573.50;;;6.87;100.00
58955;BME280;45815;52.334;5.024;2023-01-30T06:18:43;101579.81;;;6.92;100.00
58955;BME280;45815;52.334;5.024;2023-01-30T06:21:11;101582.19;;;6.87;100.00
58955;BME280;45815;52.334;5.024;2023-01-30T06:23:37;101564.78;;;6.86;100.00
58955;BME280;45815;52.334;5.024;2023-01-30T06:26:03;101565.66;;;6.87;100.00
58955;BME280;45815;52.334;5.024;2023-01-30T06:28:29;101563.44;;;6.76;100.00
58955;BME280;45815;52.334;5.024;2023-01-30T06:30:55;101551.78;;;6.88;100.00
58955;BME280;45815;52.334;5.024;2023-01-30T06:33:20;101558.59;;;6.84;100.00
58955;BME280;45815;52.334;5.024;2023-01-30T06:35:48;101553.41;;;6.86;100.00
58955;BME280;45815;52.334;5.024;2023-01-30T06:38:14;101543.41;;;6.75;100.00
58955;BME280;45815;52.334;5.024;2023-01-30T06:40:42;101550.34;;;6.75;100.00
58955;BME280;45815;52.334;5.024;2023-01-30T06:43:08;101569.41;;;6.74;100.00
58955;BME280;45815;52.334;5.024;2023-01-30T06:45:33;101555.25;;;6.69;100.00
58955;BME280;45815;52.334;5.024;2023-01-30T06:47:59;101576.88;;;6.66;100.00
58955;BME280;45815;52.334;5.024;2023-01-30T06:50:26;101561.44;;;6.71;100.00
58955;BME280;45815;52.334;5.024;2023-01-30T06:52:52;101569.91;;;6.65;100.00
58955;BME280;45815;52.334;5.024;2023-01-30T06:55:20;101575.88;;;6.63;100.00
58955;BME280;45815;52.334;5.024;2023-01-30T06:57:46;101587.94;;;6.61;100.00
58955;BME280;45815;52.334;5.024;2023-01-30T07:00:18;101575.88;;;6.63;100.00
58955;BME280;45815;52.334;5.024;2023-01-30T07:02:44;101576.31;;;6.54;100.00
58955;BME280;45815;52.334;5.024;2023-01-30T07:05:10;101563.19;;;6.52;100.00
58955;BME280;45815;52.334;5.024;2023-01-30T07:07:36;101573.94;;;6.59;100.00
58955;BME280;45815;52.334;5.024;2023-01-30T07:10:03;101589.28;;;6.52;100.00
58955;BME280;45815;52.334;5.024;2023-01-30T07:12:29;101582.81;;;6.44;100.00
58955;BME280;45815;52.334;5.024;2023-01-30T07:14:55;101599.56;;;6.49;100.00
58955;BME280;45815;52.334;5.024;2023-01-30T07:17:21;101600.75;;;6.56;100.00
58955;BME280;45815;52.334;5.024;2023-01-30T07:19:46;101589.94;;;6.48;100.00
58955;BME280;45815;52.334;5.024;2023-01-30T07:22:12;101606.03;;;6.58;100.00
58955;BME280;45815;52.334;5.024;2023-01-30T07:24:38;101604.91;;;6.52;100.00
58955;BME280;45815;52.334;5.024;2023-01-30T07:27:10;101600.81;;;6.58;100.00
58955;BME280;45815;52.334;5.024;2023-01-30T07:29:37;101594.94;;;6.62;100.00
58955;BME280;45815;52.334;5.024;2023-01-30T07:32:03;101605.50;;;6.65;100.00
58955;BME280;45815;52.334;5.024;2023-01-30T07:34:29;101598.38;;;6.61;100.00
58955;BME280;45815;52.334;5.024;2023-01-30T07:36:54;101603.59;;;6.61;100.00
58955;BME280;45815;52.334;5.024;2023-01-30T07:39:20;101603.38;;;6.56;100.00
58955;BME280;45815;52.334;5.024;2023-01-30T07:41:45;101605.75;;;6.51;100.00
58955;BME280;45815;52.334;5.024;2023-01-30T07:44:11;101594.19;;;6.64;100.00
58955;BME280;45815;52.334;5.024;2023-01-30T07:46:37;101587.84;;;6.59;100.00
58955;BME280;45815;52.334;5.024;2023-01-30T07:49:03;101594.34;;;6.67;100.00
58955;BME280;45815;52.334;5.024;2023-01-30T07:51:29;101598.38;;;6.61;100.00
58955;BME280;45815;52.334;5.024;2023-01-30T07:53:54;101601.03;;;6.62;100.00
58955;BME280;45815;52.334;5.024;2023-01-30T07:56:20;101610.72;;;6.65;100.00
58955;BME280;45815;52.334;5.024;2023-01-30T07:58:49;101612.53;;;6.66;100.00
58955;BME280;45815;52.334;5.024;2023-01-30T08:01:15;101610.13;;;6.70;100.00
58955;BME280;45815;52.334;5.024;2023-01-30T08:03:41;101611.91;;;6.71;100.00
58955;BME280;45815;52.334;5.024;2023-01-30T08:06:09;101603.19;;;6.71;100.00
58955;BME280;45815;52.334;5.024;2023-01-30T08:08:34;101613.28;;;6.63;100.00
58955;BME280;45815;52.334;5.024;2023-01-30T08:10:59;101612.66;;;6.69;100.00
58955;BME280;45815;52.334;5.024;2023-01-30T08:13:25;101622.50;;;6.74;100.00
58955;BME280;45815;52.334;5.024;2023-01-30T08:15:50;101620.66;;;6.72;100.00
58955;BME280;45815;52.334;5.024;2023-01-30T08:18:16;101626.66;;;6.71;100.00
58955;BME280;45815;52.334;5.024;2023-01-30T08:20:41;101635.56;;;6.74;100.00
58955;BME280;45815;52.334;5.024;2023-01-30T08:23:07;101640.28;;;6.83;100.00
58955;BME280;45815;52.334;5.024;2023-01-30T08:25:33;101639.63;;;6.87;100.00
58955;BME280;45815;52.334;5.024;2023-01-30T08:28:03;101639.75;;;6.90;100.00
58955;BME280;45815;52.334;5.024;2023-01-30T08:30:29;101656.91;;;6.85;100.00
58955;BME280;45815;52.334;5.024;2023-01-30T08:32:55;101656.16;;;6.88;100.00
58955;BME280;45815;52.334;5.024;2023-01-30T08:35:21;101673.13;;;6.97;100.00
58955;BME280;45815;52.334;5.024;2023-01-30T08:37:46;101678.66;;;6.86;100.00
58955;BME280;45815;52.334;5.024;2023-01-30T08:40:13;101666.28;;;7.00;100.00
58955;BME280;45815;52.334;5.024;2023-01-30T08:42:38;101671.56;;;7.01;100.00
58955;BME280;45815;52.334;5.024;2023-01-30T08:45:04;101661.22;;;7.03;100.00
58955;BME280;45815;52.334;5.024;2023-01-30T08:47:30;101661.31;;;6.86;100.00
58955;BME280;45815;52.334;5.024;2023-01-30T08:49:56;101657.84;;;7.05;100.00
58955;BME280;45815;52.334;5.024;2023-01-30T08:52:21;101681.06;;;6.99;100.00
58955;BME280;45815;52.334;5.024;2023-01-30T08:54:47;101684.31;;;6.95;100.00
58955;BME280;45815;52.334;5.024;2023-01-30T08:57:13;101672.63;;;7.05;100.00
58955;BME280;45815;52.334;5.024;2023-01-30T08:59:38;101671.03;;;7.08;100.00
58955;BME280;45815;52.334;5.024;2023-01-30T09:02:05;101673.88;;;7.13;100.00
58955;BME280;45815;52.334;5.024;2023-01-30T09:04:30;101688.03;;;7.18;100.00
58955;BME280;45815;52.334;5.024;2023-01-30T09:06:55;101710.72;;;7.19;100.00
58955;BME280;45815;52.334;5.024;2023-01-30T09:09:21;101695.19;;;7.22;100.00
58955;BME280;45815;52.334;5.024;2023-01-30T09:11:46;101700.69;;;7.28;100.00
58955;BME280;45815;52.334;5.024;2023-01-30T09:14:13;101715.78;;;7.16;100.00
58955;BME280;45815;52.334;5.024;2023-01-30T09:16:47;101705.16;;;7.31;100.00
58955;BME280;45815;52.334;5.024;2023-01-30T09:19:13;101715.09;;;7.20;100.00
58955;BME280;45815;52.334;5.024;2023-01-30T09:21:39;101703.44;;;7.31;100.00
58955;BME280;45815;52.334;5.024;2023-01-30T09:24:05;101704.66;;;7.39;100.00
58955;BME280;45815;52.334;5.024;2023-01-30T09:26:31;101705.38;;;7.35;100.00
58955;BME280;45815;52.334;5.024;2023-01-30T09:28:56;101726.00;;;7.49;100.00
58955;BME280;45815;52.334;5.024;2023-01-30T09:31:22;101720.75;;;7.49;100.00
58955;BME280;45815;52.334;5.024;2023-01-30T09:33:47;101732.59;;;7.40;100.00
58955;BME280;45815;52.334;5.024;2023-01-30T09:36:12;101733.69;;;7.46;100.00
58955;BME280;45815;52.334;5.024;2023-01-30T09:38:38;101755.47;;;7.46;100.00
58955;BME280;45815;52.334;5.024;2023-01-30T09:44:02;101738.59;;;7.20;100.00
58955;BME280;45815;52.334;5.024;2023-01-30T09:46:59;101746.19;;;7.33;100.00
58955;BME280;45815;52.334;5.024;2023-01-30T09:50:07;101744.50;;;7.16;100.00
58955;BME280;45815;52.334;5.024;2023-01-30T09:55:36;101754.47;;;7.25;100.00
58955;BME280;45815;52.334;5.024;2023-01-30T09:58:03;101768.72;;;7.31;100.00
58955;BME280;45815;52.334;5.024;2023-01-30T10:00:38;101767.47;;;7.23;100.00
58955;BME280;45815;52.334;5.024;2023-01-30T10:03:10;101750.38;;;7.30;100.00
58955;BME280;45815;52.334;5.024;2023-01-30T10:16:43;101782.59;;;7.30;100.00
58955;BME280;45815;52.334;5.024;2023-01-30T10:21:58;101785.28;;;7.32;100.00
58955;BME280;45815;52.334;5.024;2023-01-30T10:24:51;101786.34;;;7.35;100.00
58955;BME280;45815;52.334;5.024;2023-01-30T10:27:22;101778.34;;;7.32;100.00
58955;BME280;45815;52.334;5.024;2023-01-30T10:29:57;101781.25;;;7.38;100.00
58955;BME280;45815;52.334;5.024;2023-01-30T10:32:38;101769.16;;;7.40;100.00
58955;BME280;45815;52.334;5.024;2023-01-30T10:35:16;101777.22;;;7.45;100.00
58955;BME280;45815;52.334;5.024;2023-01-30T10:41:00;101793.41;;;7.75;100.00
58955;BME280;45815;52.334;5.024;2023-01-30T10:49:14;101809.66;;;8.27;100.00
58955;BME280;45815;52.334;5.024;2023-01-30T10:54:15;101794.16;;;8.31;100.00
58955;BME280;45815;52.334;5.024;2023-01-30T10:59:26;101795.03;;;8.32;100.00
58955;BME280;45815;52.334;5.024;2023-01-30T11:01:57;101798.28;;;8.26;100.00
58955;BME280;45815;52.334;5.024;2023-01-30T11:04:38;101803.03;;;8.35;100.00
58955;BME280;45815;52.334;5.024;2023-01-30T11:07:05;101806.97;;;8.25;100.00
58955;BME280;45815;52.334;5.024;2023-01-30T11:09:42;101779.16;;;8.27;100.00
58955;BME280;45815;52.334;5.024;2023-01-30T11:12:08;101804.47;;;8.28;100.00
58955;BME280;45815;52.334;5.024;2023-01-30T11:15:05;101782.13;;;8.15;100.00
58955;BME280;45815;52.334;5.024;2023-01-30T11:17:38;101786.78;;;8.42;100.00
58955;BME280;45815;52.334;5.024;2023-01-30T11:20:08;101782.53;;;8.65;100.00
58955;BME280;45815;52.334;5.024;2023-01-30T11:22:36;101793.66;;;8.80;100.00
58955;BME280;45815;52.334;5.024;2023-01-30T11:25:20;101776.91;;;8.77;100.00
58955;BME280;45815;52.334;5.024;2023-01-30T11:27:54;101793.91;;;8.65;100.00
58955;BME280;45815;52.334;5.024;2023-01-30T11:30:22;101785.53;;;8.95;100.00
58955;BME280;45815;52.334;5.024;2023-01-30T11:33:04;101788.63;;;9.07;100.00
58955;BME280;45815;52.334;5.024;2023-01-30T11:35:30;101783.09;;;9.22;100.00
58955;BME280;45815;52.334;5.024;2023-01-30T11:38:18;101793.84;;;8.85;100.00
58955;BME280;45815;52.334;5.024;2023-01-30T11:40:44;101803.22;;;8.80;100.00
58955;BME280;45815;52.334;5.024;2023-01-30T11:43:13;101804.06;;;8.79;100.00
58955;BME280;45815;52.334;5.024;2023-01-30T11:45:57;101824.88;;;8.76;100.00
58955;BME280;45815;52.334;5.024;2023-01-30T11:48:28;101806.38;;;8.92;100.00
58955;BME280;45815;52.334;5.024;2023-01-30T11:50:58;101820.19;;;9.11;100.00
58955;BME280;45815;52.334;5.024;2023-01-30T11:53:53;101807.59;;;9.23;100.00
58955;BME280;45815;52.334;5.024;2023-01-30T12:01:45;101807.44;;;8.97;100.00
58955;BME280;45815;52.334;5.024;2023-01-30T12:04:12;101807.41;;;9.41;100.00
58955;BME280;45815;52.334;5.024;2023-01-30T12:06:40;101824.97;;;9.43;100.00
58955;BME280;45815;52.334;5.024;2023-01-30T12:09:30;101801.94;;;8.91;100.00
58955;BME280;45815;52.334;5.024;2023-01-30T12:11:56;101807.28;;;8.94;100.00
58955;BME280;45815;52.334;5.024;2023-01-30T12:14:44;101814.53;;;9.22;100.00
58955;BME280;45815;52.334;5.024;2023-01-30T12:20:18;101799.97;;;9.29;100.00
58955;BME280;45815;52.334;5.024;2023-01-30T12:26:18;101823.06;;;9.60;100.00
58955;BME280;45815;52.334;5.024;2023-01-30T12:31:35;101812.75;;;9.65;100.00
58955;BME280;45815;52.334;5.024;2023-01-30T12:34:03;101832.13;;;9.47;100.00
58955;BME280;45815;52.334;5.024;2023-01-30T12:50:08;101840.00;;;9.25;100.00
58955;BME280;45815;52.334;5.024;2023-01-30T12:55:38;101860.28;;;9.30;100.00
58955;BME280;45815;52.334;5.024;2023-01-30T12:58:14;101857.75;;;9.32;100.00
58955;BME280;45815;52.334;5.024;2023-01-30T13:03:28;101871.66;;;8.89;100.00
58955;BME280;45815;52.334;5.024;2023-01-30T13:14:35;101869.81;;;9.28;100.00
58955;BME280;45815;52.334;5.024;2023-01-30T13:22:45;101881.13;;;10.16;100.00
58955;BME280;45815;52.334;5.024;2023-01-30T13:25:26;101879.97;;;10.56;100.00
58955;BME280;45815;52.334;5.024;2023-01-30T13:28:02;101876.41;;;10.54;100.00
58955;BME280;45815;52.334;5.024;2023-01-30T13:30:31;101876.50;;;10.57;100.00
58955;BME280;45815;52.334;5.024;2023-01-30T13:33:02;101879.97;;;10.56;100.00
58955;BME280;45815;52.334;5.024;2023-01-30T13:35:42;101878.97;;;10.28;100.00
58955;BME280;45815;52.334;5.024;2023-01-30T13:38:12;101880.16;;;10.61;100.00
58955;BME280;45815;52.334;5.024;2023-01-30T13:40:41;101891.66;;;10.18;100.00
58955;BME280;45815;52.334;5.024;2023-01-30T13:45:36;101889.94;;;9.96;100.00
58955;BME280;45815;52.334;5.024;2023-01-30T13:53:19;101909.00;;;9.69;100.00
58955;BME280;45815;52.334;5.024;2023-01-30T13:56:00;101926.97;;;9.60;100.00
58955;BME280;45815;52.334;5.024;2023-01-30T14:00:55;101940.44;;;9.46;100.00
58955;BME280;45815;52.334;5.024;2023-01-30T14:03:26;101930.44;;;8.96;100.00
58955;BME280;45815;52.334;5.024;2023-01-30T14:05:58;101939.38;;;9.01;100.00
58955;BME280;45815;52.334;5.024;2023-01-30T14:13:51;101954.78;;;8.74;100.00
58955;BME280;45815;52.334;5.024;2023-01-30T14:16:17;101965.53;;;8.80;100.00
58955;BME280;45815;52.334;5.024;2023-01-30T14:18:44;101951.75;;;8.84;100.00
58955;BME280;45815;52.334;5.024;2023-01-30T14:21:18;101975.53;;;8.69;100.00
58955;BME280;45815;52.334;5.024;2023-01-30T14:23:56;101981.22;;;8.80;100.00
58955;BME280;45815;52.334;5.024;2023-01-30T14:37:27;102003.59;;;8.54;100.00
58955;BME280;45815;52.334;5.024;2023-01-30T14:39:54;102018.13;;;8.47;100.00
58955;BME280;45815;52.334;5.024;2023-01-30T14:42:23;102018.00;;;8.44;100.00
58955;BME280;45815;52.334;5.024;2023-01-30T14:47:24;102043.22;;;8.61;100.00
58955;BME280;45815;52.334;5.024;2023-01-30T14:49:51;102038.47;;;8.72;100.00
58955;BME280;45815;52.334;5.024;2023-01-30T14:52:30;102041.19;;;8.74;100.00
58955;BME280;45815;52.334;5.024;2023-01-30T14:54:58;102047.84;;;8.67;100.00
58955;BME280;45815;52.334;5.024;2023-01-30T14:57:27;102052.06;;;8.83;100.00
58955;BME280;45815;52.334;5.024;2023-01-30T15:00:03;102052.19;;;8.86;100.00
58955;BME280;45815;52.334;5.024;2023-01-30T15:02:32;102067.81;;;8.84;100.00
58955;BME280;45815;52.334;5.024;2023-01-30T15:05:05;102068.72;;;8.65;100.00
58955;BME280;45815;52.334;5.024;2023-01-30T15:07:38;102076.00;;;8.53;100.00
58955;BME280;45815;52.334;5.024;2023-01-30T15:10:18;102074.25;;;8.72;100.00
58955;BME280;45815;52.334;5.024;2023-01-30T15:13:05;102084.69;;;8.52;100.00
58955;BME280;45815;52.334;5.024;2023-01-30T15:24:02;102099.13;;;8.63;100.00